createdAt,value
2018-11-29T00:00:52.046Z,-2.44
2018-11-29T00:01:52.036Z,-2.47
2018-11-29T00:02:52.013Z,-2.55
2018-11-29T00:03:51.746Z,-2.43
2018-11-29T00:04:51.967Z,-2.49
2018-11-29T00:05:51.700Z,-2.53
2018-11-29T00:06:51.925Z,-2.5
2018-11-29T00:07:51.702Z,-2.5
2018-11-29T00:08:51.884Z,-2.49
2018-11-29T00:09:51.614Z,-2.47
2018-11-29T00:10:51.845Z,-2.47
2018-11-29T00:11:51.828Z,-2.53
2018-11-29T00:12:51.806Z,-2.49
2018-11-29T00:13:51.780Z,-2.46
2018-11-29T00:14:51.514Z,-2.46
2018-11-29T00:15:51.738Z,-2.61
2018-11-29T00:16:51.721Z,-2.57
2018-11-29T00:17:51.707Z,-2.61
2018-11-29T00:18:51.673Z,-2.61
2018-11-29T00:19:51.662Z,-2.55
2018-11-29T00:20:51.633Z,-2.49
2018-11-29T00:21:51.615Z,-2.55
2018-11-29T00:22:51.595Z,-2.58
2018-11-29T00:23:51.575Z,-2.57
2018-11-29T00:24:51.556Z,-2.54
2018-11-29T00:25:51.286Z,-2.57
2018-11-29T00:26:51.511Z,-2.53
2018-11-29T00:27:51.494Z,-2.5
2018-11-29T00:28:51.475Z,-2.58
2018-11-29T00:29:51.450Z,-2.47
2018-11-29T00:30:51.429Z,-2.54
2018-11-29T00:31:51.163Z,-2.46
2018-11-29T00:32:51.389Z,-2.47
2018-11-29T00:33:51.372Z,-2.47
2018-11-29T00:34:51.353Z,-2.5
2018-11-29T00:35:51.326Z,-2.49
2018-11-29T00:36:51.304Z,-2.47
2018-11-29T00:37:51.285Z,-2.44
2018-11-29T00:38:51.263Z,-2.44
2018-11-29T00:39:50.998Z,-2.44
2018-11-29T00:40:50.977Z,-2.42
2018-11-29T00:41:51.209Z,-2.49
2018-11-29T00:42:51.182Z,-2.44
2018-11-29T00:43:51.164Z,-2.43
2018-11-29T00:44:51.147Z,-2.43
2018-11-29T00:45:50.880Z,-2.42
2018-11-29T00:46:51.107Z,-2.39
2018-11-29T00:47:51.082Z,-2.39
2018-11-29T00:48:51.062Z,-2.4
2018-11-29T00:49:51.038Z,-2.37
2018-11-29T00:50:51.880Z,-2.39
2018-11-29T00:51:51.001Z,-2.25
2018-11-29T00:52:50.974Z,-2.39
2018-11-29T00:53:50.962Z,-2.4
2018-11-29T00:54:50.937Z,-2.43
2018-11-29T00:55:50.918Z,-2.4
2018-11-29T00:56:50.900Z,-2.43
2018-11-29T00:57:50.875Z,-2.4
2018-11-29T00:58:50.856Z,-2.44
2018-11-29T00:59:50.587Z,-2.37
2018-11-29T01:00:50.810Z,-2.42
2018-11-29T01:01:50.791Z,-2.4
2018-11-29T01:02:50.779Z,-2.4
2018-11-29T01:03:50.750Z,-2.37
2018-11-29T01:04:50.736Z,-2.34
2018-11-29T01:05:50.461Z,-2.36
2018-11-29T01:06:50.693Z,-2.23
2018-11-29T01:07:50.673Z,-2.25
2018-11-29T01:08:50.398Z,-2.23
2018-11-29T01:09:50.630Z,-2.23
2018-11-29T01:10:50.608Z,-2.32
2018-11-29T01:11:50.587Z,-2.25
2018-11-29T01:12:50.591Z,-2.27
2018-11-29T01:13:50.550Z,-2.24
2018-11-29T01:14:50.282Z,-2.28
2018-11-29T01:15:50.503Z,-2.24
2018-11-29T01:16:50.494Z,-2.24
2018-11-29T01:17:50.466Z,-2.24
2018-11-29T01:18:50.487Z,-2.25
2018-11-29T01:19:50.425Z,-2.24
2018-11-29T01:20:50.403Z,-2.3
2018-11-29T01:21:50.381Z,-2.24
2018-11-29T01:22:50.370Z,-2.24
2018-11-29T01:23:50.344Z,-2.23
2018-11-29T01:24:50.325Z,-2.23
2018-11-29T01:25:50.303Z,-2.21
2018-11-29T01:26:50.038Z,-2.25
2018-11-29T01:27:50.017Z,-2.23
2018-11-29T01:28:49.994Z,-2.24
2018-11-29T01:29:49.971Z,-2.25
2018-11-29T01:30:50.205Z,-2.21
2018-11-29T01:31:49.935Z,-2.18
2018-11-29T01:32:50.170Z,-2.18
2018-11-29T01:40:11.910Z,-2.14
2018-11-29T01:40:56.989Z,-2.21
2018-11-29T01:41:57.218Z,-2.17
2018-11-29T01:42:57.202Z,-2.15
2018-11-29T01:43:57.178Z,-2.17
2018-11-29T01:44:56.904Z,-2.15
2018-11-29T01:45:57.140Z,-2.17
2018-11-29T01:46:56.863Z,-2.18
2018-11-29T01:47:56.847Z,-2.2
2018-11-29T01:48:56.827Z,-2.25
2018-11-29T01:49:56.803Z,-2.15
2018-11-29T01:50:57.039Z,-2.14
2018-11-29T01:51:56.766Z,-2.15
2018-11-29T01:52:56.500Z,-2.18
2018-11-29T01:53:56.483Z,-2.18
2018-11-29T01:54:56.956Z,-2.21
2018-11-29T01:55:56.684Z,-2.23
2018-11-29T01:56:56.662Z,-2.18
2018-11-29T01:57:56.649Z,-2.14
2018-11-29T01:58:56.879Z,-2.17
2018-11-29T01:59:56.848Z,-2.21
2018-11-29T02:00:56.829Z,-2.15
2018-11-29T02:01:56.810Z,-2.21
2018-11-29T02:02:58.031Z,-2.21
2018-11-29T02:03:56.768Z,-2.2
2018-11-29T02:04:56.750Z,-2.17
2018-11-29T02:05:56.728Z,-2.15
2018-11-29T02:06:56.460Z,-2.18
2018-11-29T02:07:56.439Z,-2.12
2018-11-29T02:08:56.423Z,-2.2
2018-11-29T02:09:56.396Z,-2.15
2018-11-29T02:10:56.379Z,-2.12
2018-11-29T02:11:56.607Z,-2.15
2018-11-29T02:12:56.595Z,-2.18
2018-11-29T02:13:56.314Z,-2.17
2018-11-29T02:14:56.296Z,-2.15
2018-11-29T02:15:56.279Z,-2.14
2018-11-29T02:16:56.254Z,-2.2
2018-11-29T02:17:55.990Z,-2.1
2018-11-29T02:18:56.217Z,-2.23
2018-11-29T02:19:56.444Z,-2.07
2018-11-29T02:20:56.432Z,-2.1
2018-11-29T02:21:56.158Z,-2.14
2018-11-29T02:22:55.887Z,-2.06
2018-11-29T02:23:56.120Z,-2.07
2018-11-29T02:24:56.343Z,-2.12
2018-11-29T02:25:56.323Z,-2.12
2018-11-29T02:26:56.054Z,-2.07
2018-11-29T02:27:56.284Z,-2.07
2018-11-29T02:28:55.769Z,-2.05
2018-11-29T02:29:55.991Z,-2.07
2018-11-29T02:30:55.980Z,-2.02
2018-11-29T02:31:55.951Z,-2.1
2018-11-29T02:32:56.180Z,-2.06
2018-11-29T02:33:55.912Z,-1.96
2018-11-29T02:34:55.892Z,-2
2018-11-29T02:35:56.140Z,-1.97
2018-11-29T02:36:56.100Z,-1.99
2018-11-29T02:37:56.078Z,-1.89
2018-11-29T02:38:56.062Z,-1.94
2018-11-29T02:39:56.044Z,-1.97
2018-11-29T02:40:55.786Z,-1.92
2018-11-29T02:41:55.997Z,-2
2018-11-29T02:42:55.983Z,-1.96
2018-11-29T02:43:55.710Z,-2
2018-11-29T02:44:55.938Z,-2
2018-11-29T02:45:55.915Z,-2
2018-11-29T02:46:55.644Z,-1.99
2018-11-29T02:47:55.626Z,-1.97
2018-11-29T02:48:55.356Z,-2
2018-11-29T02:49:55.841Z,-2.03
2018-11-29T02:50:55.575Z,-1.92
2018-11-29T02:51:55.547Z,-1.97
2018-11-29T02:52:55.775Z,-2.03
2018-11-29T02:53:55.752Z,-1.89
2018-11-29T02:54:55.734Z,-2
2018-11-29T02:55:55.715Z,-1.91
2018-11-29T02:56:55.700Z,-1.92
2018-11-29T02:57:55.688Z,-1.89
2018-11-29T02:58:55.404Z,-1.92
2018-11-29T02:59:55.640Z,-1.89
2018-11-29T03:00:55.621Z,-1.89
2018-11-29T03:01:55.344Z,-1.86
2018-11-29T03:02:55.578Z,-1.86
2018-11-29T03:03:55.055Z,-1.88
2018-11-29T03:04:55.574Z,-1.88
2018-11-29T03:05:55.266Z,-1.85
2018-11-29T03:06:55.242Z,-1.86
2018-11-29T03:07:55.227Z,-1.82
2018-11-29T03:08:55.455Z,-1.79
2018-11-29T03:09:55.446Z,-1.91
2018-11-29T03:10:55.416Z,-1.86
2018-11-29T03:11:55.146Z,-1.89
2018-11-29T03:26:03.375Z,-1.88
2018-11-29T03:27:06.633Z,-1.68
2018-11-29T03:38:34.479Z,-1.6
2018-11-29T03:39:05.158Z,-1.6
2018-11-29T03:40:04.979Z,-1.6
2018-11-29T03:41:04.629Z,-1.6
2018-11-29T03:42:04.845Z,-1.6
2018-11-29T03:43:05.085Z,-1.58
2018-11-29T03:44:05.056Z,-1.63
2018-11-29T03:45:04.785Z,-1.66
2018-11-29T03:46:04.784Z,-1.66
2018-11-29T03:47:05.001Z,-1.6
2018-11-29T03:48:04.973Z,-1.61
2018-11-29T03:49:04.714Z,-1.63
2018-11-29T03:50:04.688Z,-1.64
2018-11-29T03:51:04.921Z,-1.68
2018-11-29T03:52:04.653Z,-1.61
2018-11-29T03:53:04.881Z,-1.6
2018-11-29T03:54:04.856Z,-1.63
2018-11-29T03:55:04.889Z,-1.61
2018-11-29T03:56:04.814Z,-1.53
2018-11-29T03:57:04.795Z,-1.5
2018-11-29T03:58:04.773Z,-1.49
2018-11-29T03:59:04.759Z,-1.5
2018-11-29T04:00:04.502Z,-1.55
2018-11-29T04:01:04.719Z,-1.56
2018-11-29T04:02:04.698Z,-1.61
2018-11-29T04:03:04.427Z,-1.58
2018-11-29T04:04:04.400Z,-1.49
2018-11-29T04:05:04.629Z,-1.56
2018-11-29T04:06:04.367Z,-1.48
2018-11-29T04:07:04.348Z,-1.52
2018-11-29T04:08:04.581Z,-1.55
2018-11-29T04:09:04.310Z,-1.49
2018-11-29T04:10:04.534Z,-1.58
2018-11-29T04:11:04.516Z,-1.61
2018-11-29T04:12:04.495Z,-1.56
2018-11-29T04:13:04.224Z,-1.6
2018-11-29T04:14:04.451Z,-1.6
2018-11-29T04:15:04.184Z,-1.58
2018-11-29T04:16:04.429Z,-1.5
2018-11-29T04:17:04.165Z,-1.56
2018-11-29T04:18:04.372Z,-1.48
2018-11-29T04:19:04.357Z,-1.55
2018-11-29T04:20:04.084Z,-1.61
2018-11-29T04:21:04.310Z,-1.63
2018-11-29T04:22:04.297Z,-1.52
2018-11-29T04:23:04.281Z,-1.61
2018-11-29T04:24:04.003Z,-1.68
2018-11-29T04:25:03.985Z,-1.66
2018-11-29T04:26:04.228Z,-1.7
2018-11-29T04:27:03.936Z,-1.7
2018-11-29T04:28:04.167Z,-1.7
2018-11-29T04:29:04.149Z,-1.71
2018-11-29T04:30:03.900Z,-1.7
2018-11-29T04:31:04.126Z,-1.84
2018-11-29T04:32:03.835Z,-1.73
2018-11-29T04:33:04.074Z,-1.73
2018-11-29T04:34:04.062Z,-1.89
2018-11-29T04:35:04.033Z,-1.68
2018-11-29T04:36:04.009Z,-1.82
2018-11-29T04:37:03.753Z,-1.74
2018-11-29T04:38:03.973Z,-1.86
2018-11-29T04:39:03.702Z,-1.66
2018-11-29T04:40:03.933Z,-1.73
2018-11-29T04:41:03.903Z,-1.85
2018-11-29T04:42:03.663Z,-1.68
2018-11-29T04:43:03.627Z,-1.74
2018-11-29T04:44:03.855Z,-1.81
2018-11-29T04:45:03.832Z,-1.82
2018-11-29T04:46:03.804Z,-1.76
2018-11-29T04:47:03.541Z,-1.7
2018-11-29T04:48:09.825Z,-1.71
2018-11-29T04:49:03.748Z,-1.7
2018-11-29T04:50:03.725Z,-1.78
2018-11-29T04:51:03.756Z,-1.74
2018-11-29T04:52:03.721Z,-1.7
2018-11-29T04:53:03.165Z,-1.71
2018-11-29T04:54:03.147Z,-1.78
2018-11-29T04:55:03.626Z,-1.7
2018-11-29T04:56:03.354Z,-1.67
2018-11-29T04:57:03.333Z,-1.66
2018-11-29T04:58:03.563Z,-1.68
2018-11-29T04:59:03.543Z,-1.64
2018-11-29T05:00:03.532Z,-1.67
2018-11-29T05:01:03.499Z,-1.68
2018-11-29T05:02:03.237Z,-1.68
2018-11-29T05:03:03.463Z,-1.71
2018-11-29T05:04:03.447Z,-1.66
2018-11-29T05:05:03.752Z,-1.71
2018-11-29T05:06:03.402Z,-1.73
2018-11-29T05:07:03.136Z,-1.71
2018-11-29T05:08:03.115Z,-1.7
2018-11-29T05:09:03.356Z,-1.68
2018-11-29T05:10:03.325Z,-1.73
2018-11-29T05:11:03.301Z,-1.68
2018-11-29T05:12:03.284Z,-1.67
2018-11-29T05:13:03.259Z,-1.78
2018-11-29T05:14:03.242Z,-1.7
2018-11-29T05:15:02.975Z,-1.68
2018-11-29T05:16:03.203Z,-1.86
2018-11-29T05:17:02.937Z,-1.88
2018-11-29T05:18:03.158Z,-1.79
2018-11-29T05:19:02.895Z,-1.76
2018-11-29T05:20:02.620Z,-1.82
2018-11-29T05:21:03.100Z,-1.85
2018-11-29T05:22:03.082Z,-1.7
2018-11-29T05:23:03.063Z,-1.73
2018-11-29T05:24:03.051Z,-1.7
2018-11-29T05:25:02.542Z,-1.76
2018-11-29T05:26:02.749Z,-1.68
2018-11-29T05:27:02.982Z,-1.73
2018-11-29T05:28:02.703Z,-1.71
2018-11-29T05:29:02.935Z,-1.68
2018-11-29T05:30:02.912Z,-1.71
2018-11-29T05:31:02.644Z,-1.7
2018-11-29T05:32:02.869Z,-1.68
2018-11-29T05:33:02.607Z,-1.7
2018-11-29T05:34:02.840Z,-1.66
2018-11-29T05:35:02.812Z,-1.67
2018-11-29T05:36:02.549Z,-1.64
2018-11-29T05:37:02.532Z,-1.58
2018-11-29T05:38:02.757Z,-1.68
2018-11-29T05:39:02.487Z,-1.68
2018-11-29T05:40:02.721Z,-1.67
2018-11-29T05:41:02.697Z,-1.6
2018-11-29T05:42:02.674Z,-1.66
2018-11-29T05:43:02.400Z,-1.61
2018-11-29T05:44:02.629Z,-1.67
2018-11-29T05:45:02.624Z,-1.73
2018-11-29T05:46:02.590Z,-1.71
2018-11-29T05:47:02.325Z,-1.64
2018-11-29T05:48:02.555Z,-1.67
2018-11-29T05:49:02.280Z,-1.63
2018-11-29T05:50:02.061Z,-1.64
2018-11-29T05:51:02.536Z,-1.68
2018-11-29T05:52:02.471Z,-1.66
2018-11-29T05:53:02.466Z,-1.68
2018-11-29T05:54:02.446Z,-1.71
2018-11-29T05:55:01.912Z,-1.7
2018-11-29T05:56:02.391Z,-1.73
2018-11-29T05:57:02.117Z,-1.7
2018-11-29T05:58:02.350Z,-1.78
2018-11-29T05:59:02.332Z,-1.68
2018-11-29T06:00:02.315Z,-1.79
2018-11-29T06:01:02.289Z,-1.85
2018-11-29T06:02:02.274Z,-1.86
2018-11-29T06:03:01.753Z,-1.66
2018-11-29T06:04:01.979Z,-1.78
2018-11-29T06:05:01.706Z,-1.76
2018-11-29T06:06:02.187Z,-1.71
2018-11-29T06:07:02.174Z,-1.85
2018-11-29T06:08:01.899Z,-1.76
2018-11-29T06:09:02.122Z,-1.85
2018-11-29T06:10:02.105Z,-1.82
2018-11-29T06:11:01.841Z,-1.82
2018-11-29T06:12:02.062Z,-1.84
2018-11-29T06:13:01.792Z,-1.73
2018-11-29T06:14:02.029Z,-1.78
2018-11-29T06:15:02.001Z,-1.74
2018-11-29T06:16:01.738Z,-1.89
2018-11-29T06:17:01.963Z,-1.86
2018-11-29T06:18:01.949Z,-1.84
2018-11-29T06:19:01.929Z,-1.84
2018-11-29T06:20:01.906Z,-1.84
2018-11-29T06:21:01.885Z,-1.81
2018-11-29T06:22:01.873Z,-1.84
2018-11-29T06:23:01.600Z,-1.78
2018-11-29T06:24:01.830Z,-1.73
2018-11-29T06:25:01.809Z,-1.88
2018-11-29T06:26:01.534Z,-1.76
2018-11-29T06:27:01.767Z,-1.91
2018-11-29T06:28:01.743Z,-1.7
2018-11-29T06:29:01.480Z,-1.85
2018-11-29T06:30:01.709Z,-1.73
2018-11-29T06:31:01.437Z,-1.73
2018-11-29T06:32:01.428Z,-1.81
2018-11-29T06:33:01.395Z,-1.7
2018-11-29T06:34:01.618Z,-1.67
2018-11-29T06:35:01.359Z,-1.76
2018-11-29T06:36:06.868Z,-1.7
2018-11-29T06:37:01.565Z,-1.68
2018-11-29T06:38:01.299Z,-1.67
2018-11-29T06:39:01.528Z,-1.7
2018-11-29T06:40:01.502Z,-1.73
2018-11-29T06:41:01.292Z,-1.74
2018-11-29T06:42:01.461Z,-1.68
2018-11-29T06:43:01.194Z,-1.58
2018-11-29T06:44:01.424Z,-1.56
2018-11-29T06:45:01.399Z,-1.61
2018-11-29T06:46:01.380Z,-1.61
2018-11-29T06:54:36.561Z,-1.49
2018-11-29T06:55:36.788Z,-1.43
2018-11-29T06:56:36.783Z,-1.52
2018-11-29T06:57:36.747Z,-1.5
2018-11-29T06:58:36.728Z,-1.58
2018-11-29T06:59:36.710Z,-1.42
2018-11-29T07:00:36.689Z,-1.37
2018-11-29T07:01:36.429Z,-1.37
2018-11-29T07:02:36.647Z,-1.43
2018-11-29T07:03:36.379Z,-1.34
2018-11-29T07:04:36.607Z,-1.34
2018-11-29T07:05:36.587Z,-1.32
2018-11-29T07:06:36.325Z,-1.24
2018-11-29T07:07:36.554Z,-1.35
2018-11-29T07:08:36.537Z,-1.28
2018-11-29T07:09:36.505Z,-1.27
2018-11-29T07:10:36.491Z,-1.25
2018-11-29T07:11:36.471Z,-1.21
2018-11-29T07:12:36.459Z,-1.27
2018-11-29T07:13:36.431Z,-1.1
2018-11-29T07:14:36.159Z,-1.11
2018-11-29T07:15:36.389Z,-1.03
2018-11-29T07:16:36.366Z,-1.13
2018-11-29T07:17:36.100Z,-1.04
2018-11-29T07:18:36.325Z,-1.03
2018-11-29T07:19:36.321Z,-0.91
2018-11-29T07:20:36.041Z,-0.98
2018-11-29T07:21:36.269Z,-0.96
2018-11-29T07:22:36.249Z,-0.96
2018-11-29T07:23:36.229Z,-0.95
2018-11-29T07:24:36.207Z,-0.89
2018-11-29T07:25:36.190Z,-0.98
2018-11-29T07:26:36.167Z,-0.95
2018-11-29T07:27:36.149Z,-0.95
2018-11-29T07:28:35.882Z,-0.92
2018-11-29T07:29:35.860Z,-0.92
2018-11-29T07:30:35.855Z,-0.93
2018-11-29T07:31:36.077Z,-0.92
2018-11-29T07:32:35.804Z,-0.98
2018-11-29T07:33:35.780Z,-1.03
2018-11-29T07:34:35.762Z,-1.03
2018-11-29T07:35:35.990Z,-1.04
2018-11-29T07:36:35.973Z,-1.04
2018-11-29T07:37:35.956Z,-1.09
2018-11-29T07:38:35.953Z,-1.03
2018-11-29T07:39:35.917Z,-1.1
2018-11-29T07:40:35.892Z,-1.1
2018-11-29T07:41:35.873Z,-1.1
2018-11-29T07:42:35.607Z,-1.11
2018-11-29T07:43:35.586Z,-1.22
2018-11-29T07:44:35.814Z,-1.16
2018-11-29T07:45:35.793Z,-1.24
2018-11-29T07:46:35.774Z,-1.21
2018-11-29T07:47:35.767Z,-1.24
2018-11-29T07:48:35.490Z,-1.09
2018-11-29T07:49:35.720Z,-1.09
2018-11-29T07:50:35.694Z,-1.19
2018-11-29T07:51:35.673Z,-1.16
2018-11-29T07:52:35.655Z,-1.22
2018-11-29T07:53:35.385Z,-1.13
2018-11-29T07:54:35.613Z,-1.09
2018-11-29T07:55:35.355Z,-1.11
2018-11-29T07:56:35.326Z,-1.07
2018-11-29T07:57:35.307Z,-1.03
2018-11-29T07:58:35.537Z,-1.04
2018-11-29T07:59:35.521Z,-0.96
2018-11-29T08:00:35.253Z,-1.03
2018-11-29T08:01:35.476Z,-0.96
2018-11-29T08:02:35.457Z,-0.89
2018-11-29T08:03:35.190Z,-0.87
2018-11-29T08:04:35.416Z,-0.91
2018-11-29T08:05:35.151Z,-0.82
2018-11-29T08:06:35.395Z,-0.74
2018-11-29T08:07:35.359Z,-0.73
2018-11-29T08:08:35.089Z,-0.66
2018-11-29T08:09:35.318Z,-0.7
2018-11-29T08:10:35.537Z,-0.72
2018-11-29T08:11:35.028Z,-0.61
2018-11-29T08:12:35.261Z,-0.66
2018-11-29T08:13:35.239Z,-0.54
2018-11-29T08:14:35.220Z,-0.59
2018-11-29T08:15:35.202Z,-0.52
2018-11-29T08:16:35.183Z,-0.51
2018-11-29T08:17:35.166Z,-0.46
2018-11-29T08:18:34.896Z,-0.49
2018-11-29T08:19:35.130Z,-0.43
2018-11-29T08:20:34.853Z,-0.38
2018-11-29T08:21:35.084Z,-0.38
2018-11-29T08:22:35.067Z,-0.3
2018-11-29T08:23:34.552Z,-0.3
2018-11-29T08:24:35.025Z,-0.25
2018-11-29T08:25:35.009Z,-0.2
2018-11-29T08:26:34.988Z,-0.12
2018-11-29T08:27:34.971Z,-0.09
2018-11-29T08:28:34.951Z,-0.04
2018-11-29T08:29:39.876Z,0.02
2018-11-29T08:30:34.912Z,0.03
2018-11-29T08:31:34.641Z,0.08
2018-11-29T08:32:34.875Z,0.1
2018-11-29T08:33:34.605Z,0.16
2018-11-29T08:34:34.831Z,0.06
2018-11-29T08:35:34.866Z,0.13
2018-11-29T08:36:34.549Z,0.16
2018-11-29T08:37:34.776Z,0.14
2018-11-29T08:38:34.761Z,0.19
2018-11-29T08:39:34.999Z,0.26
2018-11-29T08:40:34.714Z,0.28
2018-11-29T08:41:34.698Z,0.34
2018-11-29T08:42:34.677Z,0.39
2018-11-29T08:43:34.767Z,0.37
2018-11-29T08:44:34.648Z,0.41
2018-11-29T08:45:34.627Z,0.5
2018-11-29T08:46:34.607Z,0.42
2018-11-29T08:47:34.586Z,0.47
2018-11-29T08:48:34.568Z,0.5
2018-11-29T08:49:34.565Z,0.48
2018-11-29T08:50:34.278Z,0.5
2018-11-29T08:51:34.562Z,0.56
2018-11-29T08:52:34.489Z,0.6
2018-11-29T08:53:34.224Z,0.56
2018-11-29T08:54:34.204Z,0.67
2018-11-29T08:55:33.944Z,0.64
2018-11-29T08:56:34.417Z,0.71
2018-11-29T08:57:34.397Z,0.79
2018-11-29T08:58:34.376Z,0.79
2018-11-29T08:59:34.358Z,0.81
2018-11-29T09:00:34.336Z,0.81
2018-11-29T09:01:34.325Z,0.82
2018-11-29T09:02:34.305Z,0.86
2018-11-29T09:03:34.283Z,0.99
2018-11-29T09:04:34.266Z,1.04
2018-11-29T09:05:38.775Z,1
2018-11-29T09:06:34.265Z,1
2018-11-29T09:07:34.211Z,1.1
2018-11-29T09:08:33.696Z,1.18
2018-11-29T09:09:34.173Z,1.12
2018-11-29T09:10:36.559Z,1.21
2018-11-29T09:11:34.143Z,1.15
2018-11-29T09:12:34.125Z,1.28
2018-11-29T09:13:34.098Z,1.24
2018-11-29T09:14:34.085Z,1.28
2018-11-29T09:15:34.064Z,1.29
2018-11-29T09:16:34.051Z,1.24
2018-11-29T09:17:33.788Z,1.32
2018-11-29T09:18:33.760Z,1.33
2018-11-29T09:19:37.375Z,1.36
2018-11-29T09:20:33.969Z,1.4
2018-11-29T09:21:33.951Z,1.46
2018-11-29T09:22:33.939Z,1.56
2018-11-29T09:23:33.918Z,1.44
2018-11-29T09:24:33.899Z,1.44
2018-11-29T09:25:33.888Z,1.46
2018-11-29T09:26:33.613Z,1.4
2018-11-29T09:27:33.844Z,1.48
2018-11-29T09:28:33.829Z,1.47
2018-11-29T09:29:33.813Z,1.48
2018-11-29T09:30:33.541Z,1.46
2018-11-29T09:31:33.772Z,1.5
2018-11-29T09:32:33.754Z,1.51
2018-11-29T09:33:33.532Z,1.47
2018-11-29T09:34:33.720Z,1.57
2018-11-29T09:35:33.700Z,1.58
2018-11-29T09:36:33.187Z,1.54
2018-11-29T09:37:33.670Z,1.53
2018-11-29T09:38:33.400Z,1.48
2018-11-29T09:39:33.381Z,1.47
2018-11-29T09:40:33.614Z,1.54
2018-11-29T09:41:33.603Z,1.54
2018-11-29T09:42:33.576Z,1.56
2018-11-29T09:43:33.555Z,1.53
2018-11-29T14:19:25.333Z,2.15
2018-11-29T14:20:25.199Z,2.09
2018-11-29T14:21:25.204Z,2.13
2018-11-29T14:22:24.911Z,2.06
2018-11-29T14:23:25.147Z,2.05
2018-11-29T14:24:24.631Z,2.15
2018-11-29T14:25:25.116Z,2.08
2018-11-29T14:26:25.086Z,2.04
2018-11-29T14:27:25.059Z,1.98
2018-11-29T14:28:25.046Z,1.9
2018-11-29T14:29:24.797Z,1.97
2018-11-29T14:30:25.031Z,2.02
2018-11-29T14:31:24.993Z,2.02
2018-11-29T14:32:26.101Z,1.94
2018-11-29T14:33:24.956Z,1.93
2018-11-29T14:35:48.082Z,1.83
2018-11-29T14:36:48.067Z,1.86
2018-11-29T14:37:48.106Z,1.97
2018-11-29T14:38:48.032Z,1.87
2018-11-29T14:39:47.764Z,1.83
2018-11-29T14:40:48.005Z,1.76
2018-11-29T14:41:47.983Z,1.87
2018-11-29T14:42:47.776Z,1.84
2018-11-29T14:43:47.939Z,1.86
2018-11-29T14:44:48.010Z,1.86
2018-11-29T14:45:47.997Z,1.82
2018-11-29T14:46:47.649Z,1.74
2018-11-29T14:47:47.627Z,1.82
2018-11-29T14:48:47.854Z,1.71
2018-11-29T14:49:47.842Z,1.72
2018-11-29T14:50:47.568Z,1.74
2018-11-29T14:51:52.803Z,1.69
2018-11-29T14:52:47.785Z,1.54
2018-11-29T14:53:47.780Z,1.64
2018-11-29T14:54:47.743Z,1.58
2018-11-29T14:55:47.480Z,1.6
2018-11-29T14:56:47.723Z,1.56
2018-11-29T14:57:47.691Z,1.5
2018-11-29T14:58:47.478Z,1.5
2018-11-29T14:59:47.406Z,1.46
2018-11-29T15:00:47.647Z,1.47
2018-11-29T15:01:47.629Z,1.5
2018-11-29T15:02:47.612Z,1.38
2018-11-29T15:03:47.583Z,1.54
2018-11-29T15:04:47.564Z,1.47
2018-11-29T15:05:47.309Z,1.36
2018-11-29T15:06:47.530Z,1.38
2018-11-29T15:07:47.556Z,1.36
2018-11-29T15:08:46.996Z,1.29
2018-11-29T15:09:47.222Z,1.3
2018-11-29T15:10:47.511Z,1.29
2018-11-29T15:11:47.438Z,1.26
2018-11-29T15:12:47.418Z,1.28
2018-11-29T15:13:47.157Z,1.26
2018-11-29T15:14:48.358Z,1.15
2018-11-29T15:15:47.365Z,1.21
2018-11-29T15:16:47.103Z,1.18
2018-11-29T15:17:47.334Z,1.15
2018-11-29T15:18:47.346Z,1.18
2018-11-29T15:19:47.297Z,1.12
2018-11-29T15:20:47.282Z,1.11
2018-11-29T15:21:47.275Z,1.12
2018-11-29T15:22:47.343Z,1.12
2018-11-29T15:23:47.219Z,1.07
2018-11-29T15:24:47.206Z,1.14
2018-11-29T15:25:47.199Z,1.12
2018-11-29T15:26:46.920Z,1.1
2018-11-29T15:27:47.147Z,1.1
2018-11-29T15:28:46.891Z,1
2018-11-29T15:29:47.113Z,1.08
2018-11-29T15:30:47.094Z,1.03
2018-11-29T15:31:47.082Z,1.03
2018-11-29T15:32:47.056Z,1.04
2018-11-29T15:33:47.039Z,0.99
2018-11-29T15:34:47.055Z,1.02
2018-11-29T15:35:47.005Z,1.03
2018-11-29T15:36:47.983Z,0.99
2018-11-29T15:37:46.970Z,0.96
2018-11-29T15:38:46.701Z,0.96
2018-11-29T15:39:46.937Z,0.99
2018-11-29T15:40:46.918Z,0.94
2018-11-29T15:41:46.892Z,0.94
2018-11-29T15:42:46.873Z,0.92
2018-11-29T15:43:46.853Z,0.93
2018-11-29T15:44:46.840Z,0.94
2018-11-29T15:45:46.830Z,0.9
2018-11-29T15:46:46.872Z,0.92
2018-11-29T15:47:46.850Z,0.85
2018-11-29T15:48:46.807Z,0.89
2018-11-29T15:49:46.539Z,0.84
2018-11-29T15:50:46.732Z,0.81
2018-11-29T15:51:46.465Z,0.79
2018-11-29T15:52:46.699Z,0.78
2018-11-29T15:53:46.674Z,0.86
2018-11-29T15:54:46.673Z,0.82
2018-11-29T15:55:46.669Z,0.86
2018-11-29T15:56:47.695Z,0.82
2018-11-29T15:57:46.602Z,0.84
2018-11-29T15:58:46.584Z,0.84
2018-11-29T15:59:46.561Z,0.75
2018-11-29T16:00:46.548Z,0.75
2018-11-29T16:01:46.530Z,0.72
2018-11-29T16:02:46.259Z,0.78
2018-11-29T16:03:46.496Z,0.76
2018-11-29T16:04:46.230Z,0.76
2018-11-29T16:05:46.452Z,0.71
2018-11-29T16:06:46.436Z,0.69
2018-11-29T16:07:46.180Z,0.64
2018-11-29T16:08:46.395Z,0.63
2018-11-29T16:09:46.138Z,0.6
2018-11-29T16:10:46.365Z,0.61
2018-11-29T16:11:46.416Z,0.5
2018-11-29T16:12:46.326Z,0.58
2018-11-29T16:13:46.054Z,0.57
2018-11-29T16:14:48.389Z,0.52
2018-11-29T16:15:46.272Z,0.53
2018-11-29T16:16:46.249Z,0.53
2018-11-29T16:17:46.227Z,0.5
2018-11-29T16:18:46.214Z,0.5
2018-11-29T16:19:46.194Z,0.53
2018-11-29T16:20:46.176Z,0.44
2018-11-29T16:21:46.162Z,0.42
2018-11-29T16:22:46.137Z,0.48
2018-11-29T16:23:46.197Z,0.38
2018-11-29T16:24:45.851Z,0.47
2018-11-29T16:25:46.081Z,0.42
2018-11-29T16:26:46.060Z,0.44
2018-11-29T16:27:46.054Z,0.38
2018-11-29T16:28:45.785Z,0.38
2018-11-29T16:29:46.018Z,0.35
2018-11-29T16:30:45.994Z,0.37
2018-11-29T16:31:45.974Z,0.34
2018-11-29T16:32:45.712Z,0.37
2018-11-29T16:33:45.933Z,0.35
2018-11-29T16:34:45.910Z,0.39
2018-11-29T16:35:45.889Z,0.35
2018-11-29T16:36:45.875Z,0.45
2018-11-29T16:37:45.865Z,0.34
2018-11-29T16:38:45.835Z,0.44
2018-11-29T16:39:45.816Z,0.35
2018-11-29T16:40:45.796Z,0.45
2018-11-29T16:41:45.782Z,0.35
2018-11-29T16:42:45.772Z,0.37
2018-11-29T16:43:45.738Z,0.37
2018-11-29T16:44:45.754Z,0.34
2018-11-29T16:45:45.526Z,0.34
2018-11-29T16:46:45.725Z,0.38
2018-11-29T16:47:45.666Z,0.35
2018-11-29T16:48:45.654Z,0.32
2018-11-29T16:49:45.390Z,0.39
2018-11-29T16:50:45.611Z,0.45
2018-11-29T16:51:45.591Z,0.34
2018-11-29T16:52:45.574Z,0.47
2018-11-29T16:53:45.062Z,0.39
2018-11-29T16:54:45.541Z,0.35
2018-11-29T16:55:45.519Z,0.34
2018-11-29T16:56:45.502Z,0.39
2018-11-29T16:57:45.474Z,0.32
2018-11-29T16:58:45.461Z,0.38
2018-11-29T16:59:45.443Z,0.37
2018-11-29T17:00:45.426Z,0.37
2018-11-29T17:01:45.187Z,0.32
2018-11-29T17:02:45.135Z,0.42
2018-11-29T17:03:45.118Z,0.37
2018-11-29T17:04:45.350Z,0.34
2018-11-29T17:05:45.332Z,0.34
2018-11-29T17:06:45.311Z,0.31
2018-11-29T17:07:45.293Z,0.32
2018-11-29T17:08:45.268Z,0.37
2018-11-29T17:09:45.257Z,0.31
2018-11-29T17:10:45.024Z,0.37
2018-11-29T17:11:45.214Z,0.34
2018-11-29T17:12:45.199Z,0.31
2018-11-29T17:13:45.178Z,0.42
2018-11-29T17:14:45.160Z,0.34
2018-11-29T17:15:44.895Z,0.35
2018-11-29T17:16:45.123Z,0.31
2018-11-29T17:17:45.119Z,0.31
2018-11-29T17:18:45.085Z,0.31
2018-11-29T17:19:45.062Z,0.37
2018-11-29T17:20:44.802Z,0.37
2018-11-29T17:21:45.108Z,0.27
2018-11-29T17:22:45.015Z,0.37
2018-11-29T17:23:44.988Z,0.31
2018-11-29T17:24:44.972Z,0.37
2018-11-29T17:25:44.953Z,0.31
2018-11-29T17:26:44.934Z,0.37
2018-11-29T17:27:44.676Z,0.34
2018-11-29T17:28:44.898Z,0.45
2018-11-29T17:29:44.876Z,0.31
2018-11-29T17:30:44.865Z,0.47
2018-11-29T17:31:44.839Z,0.31
2018-11-29T17:32:44.825Z,0.32
2018-11-29T17:33:44.806Z,0.37
2018-11-29T17:34:44.795Z,0.44
2018-11-29T17:35:44.576Z,0.39
2018-11-29T17:36:44.749Z,0.37
2018-11-29T17:37:44.728Z,0.44
2018-11-29T17:38:44.709Z,0.39
2018-11-29T17:39:44.691Z,0.35
2018-11-29T17:40:44.675Z,0.39
2018-11-29T17:41:44.652Z,0.37
2018-11-29T17:42:44.386Z,0.37
2018-11-29T17:43:44.367Z,0.39
2018-11-29T17:44:44.605Z,0.48
2018-11-29T17:45:44.575Z,0.42
2018-11-29T17:46:44.555Z,0.42
2018-11-29T17:47:44.538Z,0.37
2018-11-29T17:48:44.525Z,0.41
2018-11-29T17:49:44.503Z,0.38
2018-11-29T17:50:44.240Z,0.35
2018-11-29T17:51:44.214Z,0.35
2018-11-29T17:52:44.447Z,0.37
2018-11-29T17:53:44.432Z,0.41
2018-11-29T17:54:44.414Z,0.45
2018-11-29T17:55:44.516Z,0.38
2018-11-29T17:56:44.374Z,0.37
2018-11-29T17:57:44.102Z,0.34
2018-11-29T17:58:44.333Z,0.34
2018-11-29T17:59:44.314Z,0.31
2018-11-29T18:00:44.297Z,0.31
2018-11-29T18:01:44.029Z,0.32
2018-11-29T18:02:44.258Z,0.26
2018-11-29T18:03:44.088Z,0.28
2018-11-29T18:04:43.970Z,0.27
2018-11-29T18:05:44.200Z,0.24
2018-11-29T18:06:44.179Z,0.17
2018-11-29T18:07:44.163Z,0.17
2018-11-29T18:08:44.147Z,0.21
2018-11-29T18:09:44.159Z,0.21
2018-11-29T18:10:44.112Z,0.28
2018-11-29T18:12:20.190Z,0.24
2018-11-29T18:13:20.166Z,0.28
2018-11-29T18:14:20.159Z,0.21
2018-11-29T18:15:20.129Z,0.24
2018-11-29T18:16:20.109Z,0.34
2018-11-29T18:17:20.093Z,0.27
2018-11-29T18:18:20.071Z,0.32
2018-11-29T18:19:19.805Z,0.24
2018-11-29T18:20:20.032Z,0.16